createdAt,value
2023-03-11T00:02:16.715Z,-0.45
2023-03-11T00:04:44.027Z,-0.40
2023-03-11T00:07:10.725Z,-0.43
2023-03-11T00:09:37.315Z,-0.46
2023-03-11T00:12:04.102Z,-0.40
2023-03-11T00:14:30.573Z,-0.31
2023-03-11T00:16:57.110Z,-0.30
2023-03-11T00:19:23.649Z,-0.43
2023-03-11T00:21:50.437Z,-0.51
2023-03-11T00:24:16.897Z,-0.47
2023-03-11T00:26:43.380Z,-0.44
2023-03-11T00:29:09.834Z,-0.37
2023-03-11T00:31:36.316Z,-0.44
2023-03-11T00:34:02.852Z,-0.39
2023-03-11T00:36:33.889Z,-0.40
2023-03-11T00:39:02.001Z,-0.58
2023-03-11T00:41:28.784Z,-0.52
2023-03-11T00:43:55.264Z,-0.43
2023-03-11T00:46:21.796Z,-0.54
2023-03-11T00:48:50.914Z,-0.33
2023-03-11T00:51:17.479Z,-0.40
2023-03-11T00:53:44.161Z,-0.40
2023-03-11T00:56:11.560Z,-0.55
2023-03-11T00:58:38.159Z,-0.45
2023-03-11T01:01:22.782Z,-0.40
2023-03-11T01:03:49.532Z,-0.44
2023-03-11T01:06:16.019Z,-0.57
2023-03-11T01:08:42.537Z,-0.60
2023-03-11T01:11:09.110Z,-0.65
2023-03-11T01:13:35.594Z,-0.58
2023-03-11T01:16:02.228Z,-0.65
2023-03-11T01:18:29.001Z,-0.50
2023-03-11T01:20:55.476Z,-0.49
2023-03-11T01:23:22.071Z,-0.50
2023-03-11T01:25:48.837Z,-0.41
2023-03-11T01:28:15.311Z,-0.70
2023-03-11T01:30:42.339Z,-0.63
2023-03-11T01:33:11.337Z,-0.65
2023-03-11T01:35:40.217Z,-0.52
2023-03-11T01:38:06.696Z,-0.47
2023-03-11T01:40:40.896Z,-0.50
2023-03-11T01:43:28.183Z,-0.63
2023-03-11T01:45:54.737Z,-0.58
2023-03-11T01:48:21.192Z,-0.57
2023-03-11T01:50:49.326Z,-0.54
2023-03-11T01:53:16.144Z,-0.66
2023-03-11T01:55:43.180Z,-0.65
2023-03-11T01:58:11.996Z,-0.64
2023-03-11T02:00:38.475Z,-0.70
2023-03-11T02:03:29.558Z,-0.66
2023-03-11T02:05:56.214Z,-0.76
2023-03-11T02:08:22.854Z,-0.68
2023-03-11T02:10:49.542Z,-0.59
2023-03-11T02:13:16.183Z,-0.71
2023-03-11T02:15:42.674Z,-0.72
2023-03-11T02:18:09.210Z,-0.77
2023-03-11T02:20:50.954Z,-0.67
2023-03-11T02:23:17.750Z,-0.57
2023-03-11T02:25:46.983Z,-0.71
2023-03-11T02:28:13.646Z,-0.71
2023-03-11T02:30:40.972Z,-0.67
2023-03-11T02:33:07.780Z,-0.72
2023-03-11T02:35:34.295Z,-0.72
2023-03-11T02:38:00.872Z,-0.82
2023-03-11T02:40:29.435Z,-0.79
2023-03-11T02:43:04.000Z,-0.69
2023-03-11T02:45:30.688Z,-0.71
2023-03-11T02:47:57.480Z,-0.74
2023-03-11T02:50:23.932Z,-0.69
2023-03-11T02:52:50.392Z,-0.63
2023-03-11T02:55:18.074Z,-0.59
2023-03-11T02:57:45.063Z,-0.76
2023-03-11T03:00:15.018Z,-0.73
2023-03-11T03:02:42.148Z,-0.72
2023-03-11T03:05:08.877Z,-0.77
2023-03-11T03:07:35.334Z,-0.65
2023-03-11T03:10:01.847Z,-0.58
2023-03-11T03:12:28.305Z,-0.68
2023-03-11T03:14:54.772Z,-0.70
2023-03-11T03:17:21.253Z,-0.68
2023-03-11T03:19:47.779Z,-0.60
2023-03-11T03:22:14.594Z,-0.58
2023-03-11T03:24:41.070Z,-0.57
2023-03-11T03:27:07.536Z,-0.63
2023-03-11T03:29:33.984Z,-0.60
2023-03-11T03:32:00.530Z,-0.52
2023-03-11T03:34:27.112Z,-0.52
2023-03-11T03:36:53.578Z,-0.62
2023-03-11T03:39:20.362Z,-0.68
2023-03-11T03:41:46.834Z,-0.64
2023-03-11T03:44:13.309Z,-0.65
2023-03-11T03:46:39.787Z,-0.78
2023-03-11T03:49:06.239Z,-0.74
2023-03-11T03:51:32.732Z,-0.86
2023-03-11T03:53:59.184Z,-0.88
2023-03-11T03:56:25.677Z,-0.84
2023-03-11T03:58:53.361Z,-0.83
2023-03-11T04:01:19.896Z,-0.80
2023-03-11T04:03:46.459Z,-0.76
2023-03-11T04:06:20.696Z,-0.81
2023-03-11T04:08:47.509Z,-0.75
2023-03-11T04:11:14.291Z,-0.86
2023-03-11T04:13:41.319Z,-0.83
2023-03-11T04:16:07.831Z,-0.89
2023-03-11T04:18:34.476Z,-0.83
2023-03-11T04:21:04.432Z,-0.82
2023-03-11T04:23:30.975Z,-0.83
2023-03-11T04:25:57.487Z,-0.89
2023-03-11T04:28:23.945Z,-0.89
2023-03-11T04:30:50.442Z,-0.88
2023-03-11T04:33:16.932Z,-0.93
2023-03-11T04:35:43.394Z,-0.98
2023-03-11T04:38:09.945Z,-0.99
2023-03-11T04:40:39.242Z,-0.93
2023-03-11T04:43:05.701Z,-0.96
2023-03-11T04:45:32.280Z,-0.97
2023-03-11T04:47:58.751Z,-0.96
2023-03-11T04:50:25.212Z,-1.08
2023-03-11T04:52:51.687Z,-1.12
2023-03-11T04:55:18.187Z,-1.07
2023-03-11T04:57:44.692Z,-1.08
2023-03-11T05:00:12.038Z,-1.08
2023-03-11T05:02:38.975Z,-1.10
2023-03-11T05:05:05.942Z,-1.13
2023-03-11T05:07:32.429Z,-1.12
2023-03-11T05:09:58.963Z,-1.16
2023-03-11T05:12:25.424Z,-1.27
2023-03-11T05:14:51.889Z,-1.23
2023-03-11T05:17:19.298Z,-1.23
2023-03-11T05:19:46.022Z,-1.29
2023-03-11T05:22:12.490Z,-1.30
2023-03-11T05:24:38.954Z,-1.29
2023-03-11T05:27:05.508Z,-1.28
2023-03-11T05:29:32.520Z,-1.25
2023-03-11T05:31:59.071Z,-1.25
2023-03-11T05:34:25.596Z,-1.27
2023-03-11T05:36:52.082Z,-1.25
2023-03-11T05:39:18.603Z,-1.30
2023-03-11T05:41:45.098Z,-1.24
2023-03-11T05:44:11.555Z,-1.25
2023-03-11T05:46:38.076Z,-1.21
2023-03-11T05:49:04.566Z,-1.27
2023-03-11T05:51:31.138Z,-1.26
2023-03-11T05:53:58.637Z,-1.24
2023-03-11T05:56:25.111Z,-1.27
2023-03-11T05:58:51.813Z,-1.31
2023-03-11T06:01:18.913Z,-1.28
2023-03-11T06:03:45.751Z,-1.28
2023-03-11T06:06:12.593Z,-1.32
2023-03-11T06:08:39.088Z,-1.32
2023-03-11T06:11:07.548Z,-1.34
2023-03-11T06:13:34.107Z,-1.42
2023-03-11T06:16:00.609Z,-1.37
2023-03-11T06:18:27.157Z,-1.25
2023-03-11T06:20:54.245Z,-1.13
2023-03-11T06:23:20.809Z,-1.04
2023-03-11T06:26:00.922Z,-0.94
2023-03-11T06:28:27.608Z,-1.07
2023-03-11T06:30:56.632Z,-1.07
2023-03-11T06:33:23.968Z,-1.07
2023-03-11T06:36:00.256Z,-1.16
2023-03-11T06:38:26.847Z,-1.13
2023-03-11T06:40:53.311Z,-1.20
2023-03-11T06:43:19.880Z,-1.17
2023-03-11T06:45:46.399Z,-1.05
2023-03-11T06:48:12.914Z,-0.99
2023-03-11T06:50:39.387Z,-1.04
2023-03-11T06:53:08.690Z,-1.09
2023-03-11T06:55:35.645Z,-1.10
2023-03-11T06:58:02.658Z,-1.15
2023-03-11T07:00:31.114Z,-1.18
2023-03-11T07:02:57.850Z,-1.13
2023-03-11T07:05:24.326Z,-1.03
2023-03-11T07:07:53.773Z,-1.09
2023-03-11T07:10:20.326Z,-1.02
2023-03-11T07:12:46.882Z,-1.03
2023-03-11T07:15:14.076Z,-0.95
2023-03-11T07:17:40.661Z,-0.86
2023-03-11T07:20:07.712Z,-0.95
2023-03-11T07:22:34.181Z,-0.99
2023-03-11T07:25:00.700Z,-0.81
2023-03-11T07:27:27.973Z,-0.71
2023-03-11T07:29:54.437Z,-0.67
2023-03-11T07:32:20.955Z,-0.80
2023-03-11T07:34:47.530Z,-0.84
2023-03-11T07:37:14.316Z,-0.68
2023-03-11T07:39:40.917Z,-0.66
2023-03-11T07:42:07.664Z,-0.67
2023-03-11T07:44:34.209Z,-0.45
2023-03-11T07:47:03.285Z,-0.56
2023-03-11T07:49:29.780Z,-0.60
2023-03-11T07:51:56.300Z,-0.63
2023-03-11T07:54:22.766Z,-0.47
2023-03-11T07:56:49.393Z,-0.30
2023-03-11T07:59:15.856Z,-0.29
2023-03-11T08:01:47.056Z,-0.32
2023-03-11T08:04:14.824Z,-0.25
2023-03-11T08:06:41.601Z,-0.44
2023-03-11T08:09:08.992Z,-0.15
2023-03-11T08:11:35.950Z,-0.08
2023-03-11T08:14:02.482Z,0.17
2023-03-11T08:16:29.352Z,0.13
2023-03-11T08:18:55.825Z,0.01
2023-03-11T08:21:24.049Z,-0.22
2023-03-11T08:23:50.628Z,0.19
2023-03-11T08:26:18.701Z,0.42
2023-03-11T08:28:45.292Z,0.20
2023-03-11T08:31:15.940Z,0.12
2023-03-11T08:33:43.542Z,0.09
2023-03-11T08:36:10.366Z,-0.06
2023-03-11T08:38:36.966Z,-0.09
2023-03-11T08:41:03.545Z,0.21
2023-03-11T08:43:30.027Z,0.49
2023-03-11T08:45:56.507Z,0.69
2023-03-11T08:48:25.358Z,0.61
2023-03-11T08:50:54.538Z,0.18
2023-03-11T08:53:22.346Z,0.40
2023-03-11T08:55:49.808Z,0.27
2023-03-11T08:58:16.288Z,0.66
2023-03-11T09:00:42.748Z,1.83
2023-03-11T09:03:10.021Z,1.85
2023-03-11T09:05:36.694Z,1.97
2023-03-11T09:08:05.427Z,2.12
2023-03-11T09:10:32.299Z,2.31
2023-03-11T09:12:58.765Z,2.18
2023-03-11T09:15:25.438Z,1.58
2023-03-11T09:17:52.923Z,1.91
2023-03-11T09:20:19.659Z,1.57
2023-03-11T09:22:46.198Z,1.95
2023-03-11T09:25:12.749Z,2.13
2023-03-11T09:27:39.268Z,2.47
2023-03-11T09:30:06.160Z,2.39
2023-03-11T09:32:32.689Z,2.18
2023-03-11T09:35:00.179Z,2.01
2023-03-11T09:37:27.275Z,1.91
2023-03-11T09:39:53.746Z,2.43
2023-03-11T09:42:33.930Z,2.29
2023-03-11T09:45:09.763Z,2.25
2023-03-11T09:48:02.601Z,2.26
2023-03-11T09:50:33.771Z,2.96
2023-03-11T09:53:18.075Z,2.68
2023-03-11T09:55:52.387Z,2.55
2023-03-11T09:58:34.587Z,2.35
2023-03-11T10:01:01.113Z,2.50
2023-03-11T10:03:37.333Z,2.42
2023-03-11T10:06:21.732Z,2.72
2023-03-11T10:08:59.157Z,2.52
2023-03-11T10:12:02.807Z,2.28
2023-03-11T10:14:39.814Z,2.35
2023-03-11T10:17:20.435Z,2.59
2023-03-11T10:20:04.788Z,2.49
2023-03-11T10:22:42.397Z,3.12
2023-03-11T10:25:18.256Z,2.91
2023-03-11T10:28:01.814Z,3.41
2023-03-11T10:30:43.532Z,3.89
2023-03-11T10:33:12.594Z,3.78
2023-03-11T10:35:40.830Z,3.01
2023-03-11T10:38:15.949Z,3.04
2023-03-11T10:40:48.781Z,3.59
2023-03-11T10:43:21.499Z,3.47
2023-03-11T10:45:48.559Z,4.04
2023-03-11T10:48:16.421Z,4.30
2023-03-11T10:51:01.253Z,3.60
2023-03-11T10:53:29.066Z,2.88
2023-03-11T10:55:57.537Z,2.44
2023-03-11T10:58:25.934Z,3.60
2023-03-11T11:01:22.216Z,3.60
2023-03-11T11:03:50.368Z,3.25
2023-03-11T11:06:34.745Z,3.57
2023-03-11T11:09:21.802Z,3.08
2023-03-11T11:12:08.996Z,3.34
2023-03-11T11:15:01.755Z,3.72
2023-03-11T11:17:32.706Z,3.64
2023-03-11T11:19:59.226Z,3.85
2023-03-11T11:22:25.696Z,3.59
2023-03-11T11:24:54.152Z,3.58
2023-03-11T11:27:20.557Z,3.81
2023-03-11T11:29:47.712Z,3.80
2023-03-11T11:32:25.045Z,4.94
2023-03-11T11:34:55.623Z,4.24
2023-03-11T11:37:23.237Z,3.86
2023-03-11T11:40:01.479Z,4.33
2023-03-11T11:42:28.329Z,4.00
2023-03-11T11:45:10.182Z,3.36
2023-03-11T11:47:36.708Z,3.44
2023-03-11T11:50:07.290Z,3.28
2023-03-11T11:52:55.809Z,3.34
2023-03-11T11:55:26.470Z,3.73
2023-03-11T11:57:53.031Z,3.65
2023-03-11T12:00:30.974Z,3.00
2023-03-11T12:03:10.369Z,2.51
2023-03-11T12:05:43.766Z,2.45
2023-03-11T12:08:34.524Z,2.85
2023-03-11T12:11:07.827Z,3.37
2023-03-11T12:13:50.781Z,4.20
2023-03-11T12:16:26.984Z,5.39
2023-03-11T12:18:58.238Z,5.36
2023-03-11T12:22:02.347Z,4.74
2023-03-11T12:24:44.606Z,4.66
2023-03-11T12:27:51.774Z,4.43
2023-03-11T12:30:39.330Z,5.09
2023-03-11T12:33:09.150Z,5.78
2023-03-11T12:35:35.777Z,5.00
2023-03-11T12:38:37.507Z,5.18
2023-03-11T12:41:07.701Z,5.40
2023-03-11T12:43:34.264Z,5.12
2023-03-11T12:46:00.997Z,4.21
2023-03-11T12:48:27.326Z,3.64
2023-03-11T12:50:54.523Z,3.15
2023-03-11T12:53:21.177Z,2.86
2023-03-11T12:56:21.887Z,2.67
2023-03-11T12:58:59.655Z,2.24
2023-03-11T13:01:51.046Z,2.25
2023-03-11T13:04:25.284Z,2.22
2023-03-11T13:07:28.834Z,2.24
2023-03-11T13:10:16.680Z,2.21
2023-03-11T13:12:49.868Z,2.19
2023-03-11T13:15:22.194Z,2.67
2023-03-11T13:18:13.648Z,2.81
2023-03-11T13:20:42.972Z,2.82
2023-03-11T13:23:12.375Z,2.72
2023-03-11T13:25:40.271Z,3.50
2023-03-11T13:28:34.177Z,4.09
2023-03-11T13:31:26.423Z,3.99
2023-03-11T13:33:58.038Z,3.82
2023-03-11T13:36:52.804Z,3.15
2023-03-11T13:39:30.702Z,2.72
2023-03-11T13:41:57.267Z,3.55
2023-03-11T13:44:29.337Z,4.26
2023-03-11T13:47:24.071Z,4.53
2023-03-11T13:50:09.316Z,4.93
2023-03-11T13:52:38.211Z,4.62
2023-03-11T13:55:09.156Z,4.31
2023-03-11T13:57:36.845Z,3.63
2023-03-11T14:00:17.786Z,3.97
2023-03-11T14:02:51.052Z,3.75
2023-03-11T14:05:19.696Z,3.51
2023-03-11T14:07:46.155Z,3.20
2023-03-11T14:10:26.805Z,3.09
2023-03-11T14:13:06.926Z,3.34
2023-03-11T14:15:40.774Z,3.31
2023-03-11T14:18:37.706Z,3.45
2023-03-11T14:21:05.849Z,4.01
2023-03-11T14:23:41.316Z,4.31
2023-03-11T14:26:09.632Z,4.94
2023-03-11T14:28:38.623Z,5.06
2023-03-11T14:31:05.333Z,5.63
2023-03-11T14:33:31.858Z,5.94
2023-03-11T14:36:00.176Z,5.20
2023-03-11T14:38:28.443Z,5.90
2023-03-11T14:41:04.710Z,5.62
2023-03-11T14:43:37.182Z,6.23
2023-03-11T14:46:03.786Z,6.38
2023-03-11T14:48:33.580Z,5.61
2023-03-11T14:51:00.044Z,5.56
2023-03-11T14:53:38.092Z,5.40
2023-03-11T14:56:11.472Z,4.52
2023-03-11T14:58:40.645Z,4.09
2023-03-11T15:01:12.596Z,3.60
2023-03-11T15:03:41.340Z,3.65
2023-03-11T15:06:23.178Z,3.55
2023-03-11T15:08:51.677Z,3.42
2023-03-11T15:11:21.459Z,3.47
2023-03-11T15:13:50.660Z,3.35
2023-03-11T15:16:24.491Z,3.30
2023-03-11T15:18:51.014Z,3.27
2023-03-11T15:21:19.627Z,3.39
2023-03-11T15:23:59.293Z,3.11
2023-03-11T15:26:27.175Z,2.99
2023-03-11T15:28:55.399Z,2.76
2023-03-11T15:31:21.724Z,2.58
2023-03-11T15:33:48.403Z,2.48
2023-03-11T15:36:34.867Z,2.53
2023-03-11T15:39:13.718Z,2.10
2023-03-11T15:41:48.081Z,2.04
2023-03-11T15:44:31.174Z,2.02
2023-03-11T15:46:59.628Z,1.91
2023-03-11T15:49:26.706Z,1.77
2023-03-11T15:51:53.177Z,1.74
2023-03-11T15:54:19.914Z,1.63
2023-03-11T15:56:46.415Z,1.67
2023-03-11T15:59:14.315Z,1.71
2023-03-11T16:01:40.850Z,1.62
2023-03-11T16:04:13.041Z,1.27
2023-03-11T16:06:39.608Z,1.19
2023-03-11T16:09:06.109Z,0.83
2023-03-11T16:11:32.730Z,0.93
2023-03-11T16:13:59.562Z,0.77
2023-03-11T16:16:26.115Z,0.73
2023-03-11T16:18:52.882Z,0.51
2023-03-11T16:21:21.096Z,0.75
2023-03-11T16:23:52.038Z,0.80
2023-03-11T16:26:18.887Z,0.71
2023-03-11T16:28:45.352Z,0.67
2023-03-11T16:31:11.966Z,0.57
2023-03-11T16:33:38.477Z,0.48
2023-03-11T16:36:05.506Z,0.41
2023-03-11T16:38:32.080Z,0.35
2023-03-11T16:40:59.978Z,0.45
2023-03-11T16:43:27.482Z,0.31
2023-03-11T16:45:54.766Z,0.45
2023-03-11T16:48:22.269Z,0.32
2023-03-11T16:50:48.821Z,0.25
2023-03-11T16:53:17.405Z,0.28
2023-03-11T16:55:45.006Z,0.26
2023-03-11T16:58:12.077Z,0.31
2023-03-11T17:00:38.670Z,0.11
2023-03-11T17:03:05.227Z,-0.03
2023-03-11T17:05:31.718Z,-0.15
2023-03-11T17:08:00.957Z,-0.31
2023-03-11T17:10:37.477Z,-0.39
2023-03-11T17:13:05.107Z,-0.49
2023-03-11T17:15:35.785Z,-0.46
2023-03-11T17:18:02.292Z,-0.64
2023-03-11T17:20:28.793Z,-0.67
2023-03-11T17:22:55.250Z,-0.82
2023-03-11T17:25:22.085Z,-0.89
2023-03-11T17:27:48.608Z,-0.87
2023-03-11T17:30:24.304Z,-0.92
2023-03-11T17:32:57.501Z,-0.93
2023-03-11T17:35:24.009Z,-0.99
2023-03-11T17:37:50.545Z,-0.88
2023-03-11T17:40:17.207Z,-0.83
2023-03-11T17:42:43.745Z,-1.05
2023-03-11T17:45:10.497Z,-1.18
2023-03-11T17:47:36.980Z,-1.13
2023-03-11T17:50:04.693Z,-1.06
2023-03-11T17:52:31.207Z,-1.03
2023-03-11T17:54:57.795Z,-1.13
2023-03-11T17:57:24.286Z,-1.23
2023-03-11T17:59:51.501Z,-1.20
2023-03-11T18:02:18.283Z,-1.17
2023-03-11T18:04:46.021Z,-1.11
2023-03-11T18:07:12.872Z,-1.33
2023-03-11T18:09:39.373Z,-1.19
2023-03-11T18:12:06.781Z,-1.32
2023-03-11T18:14:33.273Z,-1.25
2023-03-11T18:16:59.787Z,-1.29
2023-03-11T18:19:26.249Z,-1.38
2023-03-11T18:21:52.727Z,-1.47
2023-03-11T18:24:19.196Z,-1.60
2023-03-11T18:26:46.097Z,-1.52
2023-03-11T18:29:12.572Z,-1.47
2023-03-11T18:31:39.396Z,-1.41
2023-03-11T18:34:12.209Z,-1.49
2023-03-11T18:36:39.329Z,-1.47
2023-03-11T18:39:05.998Z,-1.53
2023-03-11T18:41:33.833Z,-1.57
2023-03-11T18:44:00.353Z,-1.61
2023-03-11T18:46:28.666Z,-1.57
2023-03-11T18:48:57.351Z,-1.62
2023-03-11T18:51:28.051Z,-1.59
2023-03-11T18:53:54.503Z,-1.56
2023-03-11T18:56:21.058Z,-1.61
2023-03-11T18:58:47.593Z,-1.64
2023-03-11T19:01:15.939Z,-1.59
2023-03-11T19:03:42.820Z,-1.54
2023-03-11T19:06:09.892Z,-1.61
2023-03-11T19:08:36.369Z,-1.72
2023-03-11T19:11:07.221Z,-1.71
2023-03-11T19:13:46.305Z,-1.81
2023-03-11T19:16:13.395Z,-1.77
2023-03-11T19:18:39.862Z,-1.95
2023-03-11T19:21:07.115Z,-1.86
2023-03-11T19:23:33.708Z,-1.73
2023-03-11T19:26:03.387Z,-1.95
2023-03-11T19:28:30.106Z,-1.96
2023-03-11T19:30:57.575Z,-1.82
2023-03-11T19:33:24.390Z,-1.79
2023-03-11T19:35:54.823Z,-2.01
2023-03-11T19:38:21.672Z,-2.05
2023-03-11T19:40:54.927Z,-2.10
2023-03-11T19:43:21.556Z,-1.93
2023-03-11T19:45:49.489Z,-1.90
2023-03-11T19:48:16.471Z,-1.86
2023-03-11T19:50:43.094Z,-2.11
2023-03-11T19:53:09.593Z,-2.04
2023-03-11T19:55:36.052Z,-2.01
2023-03-11T19:58:02.525Z,-2.07
2023-03-11T20:00:30.496Z,-1.96
2023-03-11T20:02:57.344Z,-2.00
2023-03-11T20:05:23.853Z,-2.03
2023-03-11T20:07:50.375Z,-2.02
2023-03-11T20:10:17.688Z,-1.88
2023-03-11T20:13:01.429Z,-1.91
2023-03-11T20:15:29.102Z,-1.94
2023-03-11T20:17:55.912Z,-1.89
2023-03-11T20:20:22.670Z,-1.84
2023-03-11T20:22:49.452Z,-1.95
2023-03-11T20:25:16.159Z,-2.07
2023-03-11T20:27:42.982Z,-2.07
2023-03-11T20:30:10.048Z,-2.04
2023-03-11T20:32:36.518Z,-2.15
2023-03-11T20:35:03.281Z,-2.03
2023-03-11T20:37:30.307Z,-2.03
2023-03-11T20:39:56.798Z,-2.01
2023-03-11T20:42:23.314Z,-2.08
2023-03-11T20:44:53.423Z,-2.24
2023-03-11T20:47:20.017Z,-2.29
2023-03-11T20:49:46.611Z,-2.22
2023-03-11T20:52:13.206Z,-2.25
2023-03-11T20:54:40.074Z,-2.14
2023-03-11T20:57:06.923Z,-2.01
2023-03-11T20:59:33.484Z,-2.09
2023-03-11T21:02:00.122Z,-2.06
2023-03-11T21:04:26.675Z,-2.16
2023-03-11T21:06:54.768Z,-2.11
2023-03-11T21:09:21.352Z,-2.08
2023-03-11T21:11:47.919Z,-2.07
2023-03-11T21:14:17.762Z,-2.11
2023-03-11T21:16:45.314Z,-2.18
2023-03-11T21:19:13.373Z,-2.25
2023-03-11T21:21:40.115Z,-2.24
2023-03-11T21:24:06.940Z,-2.26
2023-03-11T21:26:33.559Z,-2.20
2023-03-11T21:29:02.367Z,-2.22
2023-03-11T21:31:29.773Z,-2.12
2023-03-11T21:33:57.218Z,-2.06
2023-03-11T21:36:23.806Z,-2.15
2023-03-11T21:38:50.385Z,-2.03
2023-03-11T21:41:25.087Z,-2.16
2023-03-11T21:43:52.398Z,-2.18
2023-03-11T21:46:20.509Z,-1.96
2023-03-11T21:48:47.192Z,-2.02
2023-03-11T21:51:14.361Z,-1.93
2023-03-11T21:53:40.971Z,-2.01
2023-03-11T21:56:07.829Z,-1.97
2023-03-11T21:58:34.419Z,-1.88
2023-03-11T22:01:01.253Z,-1.81
2023-03-11T22:03:28.049Z,-1.76
2023-03-11T22:06:01.652Z,-1.89
2023-03-11T22:08:28.200Z,-2.02
2023-03-11T22:10:54.885Z,-2.04
2023-03-11T22:13:21.410Z,-2.00
2023-03-11T22:15:48.330Z,-2.06
2023-03-11T22:18:17.172Z,-2.04
2023-03-11T22:20:43.757Z,-2.10
2023-03-11T22:23:10.241Z,-2.24
2023-03-11T22:25:36.810Z,-2.22
2023-03-11T22:28:03.444Z,-2.27
2023-03-11T22:30:29.909Z,-2.18
2023-03-11T22:32:56.510Z,-2.14
2023-03-11T22:35:23.009Z,-2.17
2023-03-11T22:37:49.470Z,-2.18
2023-03-11T22:40:15.995Z,-2.27
2023-03-11T22:42:42.457Z,-2.24
2023-03-11T22:45:09.109Z,-2.19
2023-03-11T22:47:35.621Z,-2.17
2023-03-11T22:50:02.183Z,-2.06
2023-03-11T22:52:28.667Z,-2.15
2023-03-11T22:54:55.241Z,-2.26
2023-03-11T22:57:21.765Z,-2.30
2023-03-11T22:59:48.238Z,-2.33
2023-03-11T23:02:14.708Z,-2.51
2023-03-11T23:04:44.488Z,-2.51
2023-03-11T23:07:12.044Z,-2.40
2023-03-11T23:09:38.556Z,-2.32
2023-03-11T23:12:05.499Z,-2.33
2023-03-11T23:14:44.214Z,-2.36
2023-03-11T23:17:11.435Z,-2.55
2023-03-11T23:19:37.975Z,-2.48
2023-03-11T23:22:04.502Z,-2.53
2023-03-11T23:24:30.977Z,-2.48
2023-03-11T23:26:57.455Z,-2.55
2023-03-11T23:29:23.916Z,-2.50
2023-03-11T23:31:50.438Z,-2.60
2023-03-11T23:34:16.940Z,-2.59
2023-03-11T23:36:43.410Z,-2.52
2023-03-11T23:39:09.871Z,-2.61
2023-03-11T23:41:37.851Z,-2.66
2023-03-11T23:44:04.585Z,-2.70
2023-03-11T23:46:31.147Z,-2.65
2023-03-11T23:48:57.662Z,-2.69
2023-03-11T23:51:24.185Z,-2.69
2023-03-11T23:53:50.647Z,-2.85
2023-03-11T23:56:17.442Z,-2.80
2023-03-11T23:58:44.235Z,-2.72
